createdAt,value
2023-01-07T00:01:39.305Z,11.07
2023-01-07T00:04:10.719Z,11.35
2023-01-07T00:06:41.635Z,11.02
2023-01-07T00:09:16.744Z,11.85
2023-01-07T00:11:45.975Z,12.45
2023-01-07T00:14:15.284Z,12.45
2023-01-07T00:16:43.662Z,12.68
2023-01-07T00:19:15.321Z,12.52
2023-01-07T00:21:43.845Z,12.50
2023-01-07T00:24:12.333Z,10.07
2023-01-07T00:26:40.925Z,10.15
2023-01-07T00:29:09.390Z,10.50
2023-01-07T00:31:40.838Z,10.23
2023-01-07T00:34:09.571Z,9.50
2023-01-07T00:36:44.438Z,10.15
2023-01-07T00:39:19.801Z,9.18
2023-01-07T00:42:07.696Z,9.15
2023-01-07T00:44:36.976Z,9.65
2023-01-07T00:47:05.104Z,11.65
2023-01-07T00:49:32.628Z,11.43
2023-01-07T00:52:00.746Z,10.05
2023-01-07T00:54:28.729Z,10.77
2023-01-07T00:56:56.899Z,11.95
2023-01-07T00:59:24.676Z,12.25
2023-01-07T01:01:52.590Z,12.65
2023-01-07T01:04:20.420Z,12.07
2023-01-07T01:06:48.367Z,13.00
2023-01-07T01:09:15.868Z,13.52
2023-01-07T01:11:43.773Z,14.38
2023-01-07T01:14:12.940Z,14.60
2023-01-07T01:16:40.915Z,11.98
2023-01-07T01:19:08.490Z,12.25
2023-01-07T01:21:36.682Z,12.52
2023-01-07T01:24:04.539Z,13.18
2023-01-07T01:26:32.367Z,13.63
2023-01-07T01:28:59.898Z,13.55
2023-01-07T01:31:27.809Z,13.65
2023-01-07T01:33:57.068Z,13.00
2023-01-07T01:36:25.782Z,12.77
2023-01-07T01:38:57.538Z,11.07
2023-01-07T01:41:27.677Z,10.90
2023-01-07T01:43:57.330Z,10.30
2023-01-07T01:46:34.360Z,9.40
2023-01-07T01:49:27.253Z,8.88
2023-01-07T01:52:11.801Z,7.40
2023-01-07T01:54:44.161Z,8.05
2023-01-07T01:57:12.229Z,8.00
2023-01-07T01:59:44.520Z,7.32
2023-01-07T02:02:22.038Z,8.88
2023-01-07T02:04:50.490Z,8.35
2023-01-07T02:07:19.107Z,8.50
2023-01-07T02:10:18.492Z,8.13
2023-01-07T02:12:53.503Z,6.45
2023-01-07T02:15:32.940Z,6.97
2023-01-07T02:18:51.633Z,6.20
2023-01-07T02:21:27.888Z,5.25
2023-01-07T02:24:18.726Z,5.15
2023-01-07T02:27:39.303Z,5.18
2023-01-07T02:30:48.307Z,4.22
2023-01-07T02:33:41.375Z,4.88
2023-01-07T02:36:33.096Z,4.60
2023-01-07T02:39:25.547Z,5.15
2023-01-07T02:42:12.266Z,5.00
2023-01-07T02:45:02.481Z,5.15
2023-01-07T02:47:54.711Z,5.50
2023-01-07T02:50:22.791Z,4.10
2023-01-07T02:52:51.700Z,4.28
2023-01-07T02:55:46.342Z,4.53
2023-01-07T02:58:33.146Z,5.72
2023-01-07T03:01:27.541Z,6.35
2023-01-07T03:04:45.370Z,5.13
2023-01-07T03:07:40.300Z,5.10
2023-01-07T03:10:57.143Z,3.20
2023-01-07T03:13:54.751Z,3.13
2023-01-07T03:16:40.451Z,3.53
2023-01-07T03:19:30.524Z,3.03
2023-01-07T03:22:02.296Z,3.55
2023-01-07T03:24:33.313Z,3.10
2023-01-07T03:27:04.837Z,2.45
2023-01-07T03:29:33.285Z,1.83
2023-01-07T03:32:16.584Z,1.67
2023-01-07T03:34:45.685Z,1.60
2023-01-07T03:39:49.255Z,1.67
2023-01-07T03:42:41.925Z,1.13
2023-01-07T03:45:25.122Z,1.50
2023-01-07T03:47:57.818Z,1.30
2023-01-07T03:50:30.683Z,1.42
2023-01-07T03:52:58.615Z,0.88
2023-01-07T03:55:26.612Z,1.02
2023-01-07T03:57:57.876Z,1.08
2023-01-07T04:00:26.825Z,0.90
2023-01-07T04:03:05.477Z,1.05
2023-01-07T04:05:37.669Z,1.55
2023-01-07T04:08:06.061Z,1.70
2023-01-07T04:10:37.037Z,1.77
2023-01-07T04:13:05.032Z,1.55
2023-01-07T04:15:32.823Z,1.95
2023-01-07T04:18:00.947Z,2.53
2023-01-07T04:20:29.321Z,1.73
2023-01-07T04:22:57.494Z,1.30
2023-01-07T04:25:25.063Z,1.25
2023-01-07T04:27:53.447Z,1.73
2023-01-07T04:30:22.338Z,1.15
2023-01-07T04:32:51.429Z,3.97
2023-01-07T04:35:19.183Z,4.95
2023-01-07T04:37:47.218Z,5.72
2023-01-07T04:40:14.929Z,7.20
2023-01-07T04:42:42.943Z,5.75
2023-01-07T04:45:11.421Z,8.50
2023-01-07T04:47:39.338Z,10.63
2023-01-07T04:50:08.079Z,9.50
2023-01-07T04:52:38.885Z,10.73
2023-01-07T04:55:08.248Z,11.13
2023-01-07T04:57:36.257Z,11.40
2023-01-07T05:00:05.703Z,13.30
2023-01-07T05:02:34.663Z,14.40
2023-01-07T05:05:03.446Z,15.63
2023-01-07T05:07:31.849Z,18.25
2023-01-07T05:10:00.178Z,21.58
2023-01-07T05:12:29.413Z,21.13
2023-01-07T05:14:57.164Z,22.27
2023-01-07T05:17:25.514Z,23.90
2023-01-07T05:19:53.885Z,24.30
2023-01-07T05:22:21.944Z,20.38
2023-01-07T05:24:49.709Z,20.88
2023-01-07T05:27:18.946Z,20.65
2023-01-07T05:29:46.628Z,22.02
2023-01-07T05:32:14.596Z,24.35
2023-01-07T05:34:42.723Z,22.73
2023-01-07T05:37:10.640Z,23.88
2023-01-07T05:39:39.995Z,23.02
2023-01-07T05:42:09.227Z,26.73
2023-01-07T05:44:36.830Z,27.85
2023-01-07T05:47:04.778Z,28.58
2023-01-07T05:49:32.351Z,25.40
2023-01-07T05:52:00.197Z,25.27
2023-01-07T05:54:27.725Z,26.23
2023-01-07T05:56:55.807Z,23.30
2023-01-07T05:59:23.421Z,25.73
2023-01-07T06:01:51.383Z,24.13
2023-01-07T06:04:19.074Z,24.85
2023-01-07T06:06:47.199Z,23.00
2023-01-07T06:09:14.918Z,23.77
2023-01-07T06:11:42.928Z,24.70
2023-01-07T06:14:10.544Z,22.27
2023-01-07T06:16:38.433Z,23.95
2023-01-07T06:19:06.013Z,24.10
2023-01-07T06:21:33.958Z,23.88
2023-01-07T06:24:01.503Z,25.38
2023-01-07T06:26:29.312Z,24.27
2023-01-07T06:28:56.875Z,21.25
2023-01-07T06:31:24.710Z,23.13
2023-01-07T06:33:52.223Z,23.08
2023-01-07T06:36:20.062Z,21.13
2023-01-07T06:38:47.608Z,20.42
2023-01-07T06:41:15.537Z,12.98
2023-01-07T06:43:43.061Z,12.65
2023-01-07T06:46:11.334Z,10.98
2023-01-07T06:48:38.986Z,10.25
2023-01-07T06:51:06.808Z,10.98
2023-01-07T06:53:34.469Z,9.98
2023-01-07T06:56:02.434Z,10.73
2023-01-07T06:58:30.195Z,11.55
2023-01-07T07:01:03.123Z,12.63
2023-01-07T07:03:30.700Z,12.55
2023-01-07T07:05:58.685Z,13.25
2023-01-07T07:08:26.338Z,12.27
2023-01-07T07:10:54.191Z,11.07
2023-01-07T07:13:22.167Z,12.90
2023-01-07T07:15:50.122Z,12.40
2023-01-07T07:18:18.304Z,12.73
2023-01-07T07:20:49.217Z,12.10
2023-01-07T07:23:16.874Z,12.75
2023-01-07T07:25:44.774Z,13.73
2023-01-07T07:28:12.441Z,13.10
2023-01-07T07:30:47.602Z,13.18
2023-01-07T07:33:19.339Z,13.35
2023-01-07T07:35:48.446Z,14.55
2023-01-07T07:38:17.848Z,16.13
2023-01-07T07:40:47.139Z,16.50
2023-01-07T07:43:15.664Z,16.58
2023-01-07T07:45:43.922Z,16.80
2023-01-07T07:48:14.519Z,16.25
2023-01-07T07:50:42.453Z,18.63
2023-01-07T07:53:10.634Z,16.95
2023-01-07T07:55:39.738Z,14.40
2023-01-07T07:58:07.370Z,16.60
2023-01-07T08:00:35.417Z,18.60
2023-01-07T08:03:03.242Z,19.25
2023-01-07T08:05:31.474Z,19.55
2023-01-07T08:07:59.067Z,20.83
2023-01-07T08:10:28.692Z,21.58
2023-01-07T08:12:56.126Z,25.23
2023-01-07T08:15:23.898Z,31.65
2023-01-07T08:18:02.350Z,41.95
2023-01-07T08:20:31.716Z,44.20
2023-01-07T08:23:00.958Z,39.05
2023-01-07T08:25:31.248Z,36.10
2023-01-07T08:28:00.218Z,35.50
2023-01-07T08:30:29.306Z,37.55
2023-01-07T08:32:57.490Z,36.65
2023-01-07T08:35:25.674Z,32.40
2023-01-07T08:38:00.208Z,31.73
2023-01-07T08:40:28.623Z,29.52
2023-01-07T08:43:05.121Z,30.45
2023-01-07T08:45:33.705Z,34.70
2023-01-07T08:48:01.249Z,37.42
2023-01-07T08:50:32.024Z,39.08
2023-01-07T08:53:00.337Z,36.65
2023-01-07T08:55:28.285Z,37.97
2023-01-07T08:57:55.896Z,38.20
2023-01-07T09:00:23.923Z,37.35
2023-01-07T09:02:51.541Z,37.20
2023-01-07T09:05:19.489Z,37.00
2023-01-07T09:07:46.985Z,36.70
2023-01-07T09:10:14.899Z,38.65
2023-01-07T09:12:42.464Z,37.78
2023-01-07T09:15:12.397Z,36.60
2023-01-07T09:17:40.933Z,38.45
2023-01-07T09:20:09.850Z,39.85
2023-01-07T09:22:37.942Z,38.88
2023-01-07T09:25:06.756Z,40.63
2023-01-07T09:27:34.340Z,42.43
2023-01-07T09:30:02.252Z,42.08
2023-01-07T09:32:30.594Z,43.63
2023-01-07T09:34:58.486Z,45.75
2023-01-07T09:37:26.047Z,44.05
2023-01-07T09:39:54.019Z,47.25
2023-01-07T09:42:56.718Z,45.78
2023-01-07T09:45:52.171Z,48.53
2023-01-07T09:48:46.674Z,45.20
2023-01-07T09:51:36.478Z,49.75
2023-01-07T09:54:12.752Z,46.88
2023-01-07T09:56:41.225Z,48.03
2023-01-07T09:59:12.665Z,47.05
2023-01-07T10:02:04.575Z,49.08
2023-01-07T10:05:01.890Z,45.30
2023-01-07T10:07:44.594Z,43.05
2023-01-07T10:10:45.925Z,42.15
2023-01-07T10:13:42.802Z,41.75
2023-01-07T10:16:55.049Z,41.15
2023-01-07T10:19:35.583Z,41.22
2023-01-07T10:22:36.638Z,40.20
2023-01-07T10:25:15.917Z,40.70
2023-01-07T10:27:46.363Z,41.45
2023-01-07T10:30:27.071Z,42.97
2023-01-07T10:33:15.549Z,42.03
2023-01-07T10:35:44.813Z,42.92
2023-01-07T10:38:19.540Z,43.90
2023-01-07T10:40:57.159Z,44.50
2023-01-07T10:43:57.025Z,44.83
2023-01-07T10:47:13.131Z,44.00
2023-01-07T10:50:17.389Z,44.92
2023-01-07T10:52:57.386Z,44.58
2023-01-07T10:55:45.216Z,44.17
2023-01-07T10:58:13.526Z,42.22
2023-01-07T11:00:41.892Z,43.72
2023-01-07T11:03:23.978Z,46.35
2023-01-07T11:06:03.052Z,48.08
2023-01-07T11:08:40.186Z,45.67
2023-01-07T11:11:18.727Z,46.00
2023-01-07T11:14:00.045Z,46.45
2023-01-07T11:16:37.401Z,43.45
2023-01-07T11:19:09.097Z,42.08
2023-01-07T11:21:43.190Z,44.10
2023-01-07T11:24:36.234Z,43.30
2023-01-07T11:27:34.257Z,41.03
2023-01-07T11:30:27.064Z,40.40
2023-01-07T11:33:04.570Z,39.13
2023-01-07T11:35:32.687Z,40.05
2023-01-07T11:38:00.625Z,40.47
2023-01-07T11:40:32.970Z,42.90
2023-01-07T11:43:17.110Z,41.30
2023-01-07T11:46:19.264Z,42.10
2023-01-07T11:49:03.196Z,43.80
2023-01-07T11:51:40.872Z,44.42
2023-01-07T11:54:29.685Z,45.45
2023-01-07T11:57:21.792Z,40.83
2023-01-07T12:00:13.920Z,40.95
2023-01-07T12:02:42.056Z,38.67
2023-01-07T12:05:33.189Z,36.85
2023-01-07T12:08:01.716Z,37.28
2023-01-07T12:10:38.707Z,38.72
2023-01-07T12:13:21.860Z,38.55
2023-01-07T12:15:58.472Z,36.85
2023-01-07T12:18:54.898Z,38.30
2023-01-07T12:22:08.823Z,39.38
2023-01-07T12:25:30.532Z,36.00
2023-01-07T12:28:19.369Z,35.08
2023-01-07T12:31:40.189Z,35.25
2023-01-07T12:34:26.566Z,34.20
2023-01-07T12:37:02.547Z,32.78
2023-01-07T12:39:45.456Z,33.65
2023-01-07T12:42:39.538Z,40.03
2023-01-07T12:45:23.525Z,39.03
2023-01-07T12:48:01.417Z,36.90
2023-01-07T12:50:54.816Z,37.75
2023-01-07T12:53:44.293Z,37.25
2023-01-07T12:56:43.491Z,38.70
2023-01-07T12:59:46.281Z,41.35
2023-01-07T13:02:35.792Z,40.10
2023-01-07T13:05:20.356Z,35.45
2023-01-07T13:08:16.274Z,36.55
2023-01-07T13:11:14.415Z,38.40
2023-01-07T13:13:51.027Z,37.38
2023-01-07T13:16:19.180Z,36.70
2023-01-07T13:18:46.874Z,37.58
2023-01-07T13:21:18.155Z,42.55
2023-01-07T13:24:19.057Z,35.17
2023-01-07T13:26:50.197Z,35.70
2023-01-07T13:29:44.084Z,36.22
2023-01-07T13:32:52.325Z,32.15
2023-01-07T13:35:44.431Z,32.58
2023-01-07T13:38:41.691Z,31.02
2023-01-07T13:41:31.051Z,31.52
2023-01-07T13:46:41.995Z,28.58
2023-01-07T13:49:39.626Z,28.65
2023-01-07T13:52:29.847Z,31.30
2023-01-07T13:55:02.129Z,28.88
2023-01-07T13:57:51.033Z,31.42
2023-01-07T14:01:02.128Z,32.92
2023-01-07T14:03:34.024Z,36.03
2023-01-07T14:06:23.871Z,39.90
2023-01-07T14:09:06.436Z,34.92
2023-01-07T14:11:36.401Z,31.23
2023-01-07T14:14:23.094Z,29.85
2023-01-07T14:17:47.019Z,30.77
2023-01-07T14:21:15.265Z,28.70
2023-01-07T14:24:05.050Z,27.02
2023-01-07T14:26:46.901Z,31.13
2023-01-07T14:29:25.871Z,26.38
2023-01-07T14:35:08.335Z,31.90
2023-01-07T14:37:43.820Z,32.08
2023-01-07T14:41:04.196Z,32.03
2023-01-07T14:43:43.707Z,29.33
2023-01-07T14:46:23.858Z,28.38
2023-01-07T14:49:01.826Z,27.70
2023-01-07T14:52:11.557Z,28.67
2023-01-07T14:55:13.671Z,34.35
2023-01-07T14:58:00.180Z,32.33
2023-01-07T15:01:09.192Z,32.10
2023-01-07T15:06:39.344Z,36.75
2023-01-07T15:09:41.720Z,34.75
2023-01-07T15:12:38.662Z,33.20
2023-01-07T15:15:42.134Z,32.88
2023-01-07T15:18:12.151Z,31.30
2023-01-07T15:21:04.689Z,30.73
2023-01-07T15:23:44.401Z,32.00
2023-01-07T15:26:40.772Z,34.30
2023-01-07T15:29:57.903Z,42.40
2023-01-07T15:32:38.420Z,42.95
2023-01-07T15:35:19.898Z,41.92
2023-01-07T15:37:50.218Z,38.05
2023-01-07T15:40:24.740Z,36.42
2023-01-07T15:42:57.329Z,34.97
2023-01-07T15:45:27.838Z,34.55
2023-01-07T15:48:08.090Z,30.02
2023-01-07T15:50:40.971Z,29.23
2023-01-07T15:53:11.780Z,30.60
2023-01-07T15:55:54.839Z,30.00
2023-01-07T15:58:40.285Z,30.05
2023-01-07T16:01:21.754Z,26.95
2023-01-07T16:03:55.216Z,26.98
2023-01-07T16:06:31.642Z,22.60
2023-01-07T16:09:04.492Z,23.20
2023-01-07T16:11:32.682Z,22.75
2023-01-07T16:14:13.869Z,23.80
2023-01-07T16:16:41.997Z,23.45
2023-01-07T16:19:21.053Z,23.15
2023-01-07T16:21:59.326Z,24.52
2023-01-07T16:24:27.915Z,22.60
2023-01-07T16:27:05.285Z,24.92
2023-01-07T16:29:50.937Z,27.27
2023-01-07T16:32:20.999Z,28.48
2023-01-07T16:35:01.439Z,31.70
2023-01-07T16:37:30.208Z,33.13
2023-01-07T16:39:58.569Z,33.42
2023-01-07T16:42:27.544Z,34.05
2023-01-07T16:44:55.471Z,35.08
2023-01-07T16:47:32.828Z,33.70
2023-01-07T16:50:16.179Z,35.42
2023-01-07T16:52:56.018Z,34.45
2023-01-07T16:56:10.304Z,34.33
2023-01-07T16:58:55.585Z,32.63
2023-01-07T17:01:35.416Z,32.60
2023-01-07T17:04:15.288Z,30.88
2023-01-07T17:06:43.941Z,27.52
2023-01-07T17:09:33.420Z,28.75
2023-01-07T17:12:55.342Z,30.42
2023-01-07T17:15:43.661Z,29.52
2023-01-07T17:18:11.392Z,27.98
2023-01-07T17:20:51.562Z,27.58
2023-01-07T17:23:25.608Z,26.30
2023-01-07T17:26:08.887Z,33.10
2023-01-07T17:28:49.334Z,28.88
2023-01-07T17:31:17.182Z,28.58
2023-01-07T17:33:45.504Z,29.42
2023-01-07T17:36:24.950Z,29.27
2023-01-07T17:38:53.836Z,28.05
2023-01-07T17:41:42.502Z,32.20
2023-01-07T17:44:12.753Z,38.00
2023-01-07T17:46:41.467Z,37.17
2023-01-07T17:49:11.574Z,37.75
2023-01-07T17:51:43.910Z,30.65
2023-01-07T17:54:24.629Z,31.50
2023-01-07T17:56:52.963Z,31.35
2023-01-07T17:59:26.119Z,36.17
2023-01-07T18:01:55.123Z,39.08
2023-01-07T18:04:23.363Z,39.72
2023-01-07T18:06:51.229Z,43.00
2023-01-07T18:09:19.081Z,39.72
2023-01-07T18:12:05.154Z,37.90
2023-01-07T18:14:33.345Z,34.60
2023-01-07T18:17:01.280Z,37.05
2023-01-07T18:19:29.152Z,37.55
2023-01-07T18:21:56.597Z,38.67
2023-01-07T18:24:24.688Z,38.83
2023-01-07T18:26:52.693Z,37.40
2023-01-07T18:29:21.562Z,35.58
2023-01-07T18:31:52.460Z,37.00
2023-01-07T18:34:20.630Z,38.08
2023-01-07T18:36:48.188Z,38.28
2023-01-07T18:39:19.788Z,40.58
2023-01-07T18:41:51.539Z,38.25
2023-01-07T18:44:21.391Z,36.30
2023-01-07T18:46:49.524Z,36.63
2023-01-07T18:49:17.314Z,37.55
2023-01-07T18:51:47.115Z,37.92
2023-01-07T18:56:45.761Z,46.28
2023-01-07T18:59:14.589Z,49.47
2023-01-07T19:01:42.816Z,46.40
2023-01-07T19:04:10.721Z,46.75
2023-01-07T19:06:38.591Z,45.65
2023-01-07T19:09:06.493Z,47.65
2023-01-07T19:11:34.484Z,46.40
2023-01-07T19:14:01.959Z,47.65
2023-01-07T19:16:29.818Z,50.15
2023-01-07T19:18:57.344Z,54.55
2023-01-07T19:21:26.670Z,49.75
2023-01-07T19:23:54.783Z,51.65
2023-01-07T19:26:22.727Z,49.67
2023-01-07T19:28:50.320Z,55.20
2023-01-07T19:31:18.214Z,51.85
2023-01-07T19:33:45.758Z,53.60
2023-01-07T19:36:15.858Z,54.83
2023-01-07T19:38:48.336Z,54.05
2023-01-07T19:41:19.738Z,55.40
2023-01-07T19:43:48.309Z,54.15
2023-01-07T19:46:16.494Z,53.20
2023-01-07T19:48:47.370Z,53.85
2023-01-07T19:51:15.579Z,52.30
2023-01-07T19:53:43.173Z,51.13
2023-01-07T19:56:12.897Z,57.50
2023-01-07T19:58:41.896Z,57.60
2023-01-07T20:01:15.392Z,60.15
2023-01-07T20:03:45.499Z,59.05
2023-01-07T20:06:16.869Z,58.58
2023-01-07T20:08:44.858Z,56.63
2023-01-07T20:11:13.295Z,57.08
2023-01-07T20:13:41.629Z,56.05
2023-01-07T20:16:16.422Z,58.05
2023-01-07T20:18:47.766Z,57.65
2023-01-07T20:21:19.472Z,57.95
2023-01-07T20:23:47.566Z,67.80
2023-01-07T20:26:25.673Z,86.97
2023-01-07T20:28:53.338Z,62.45
2023-01-07T20:31:23.798Z,59.08
2023-01-07T20:33:52.048Z,58.25
2023-01-07T20:36:23.851Z,60.30
2023-01-07T20:38:51.743Z,65.22
2023-01-07T20:41:27.707Z,68.47
2023-01-07T20:43:58.929Z,70.75
2023-01-07T20:46:29.664Z,69.80
2023-01-07T20:48:58.016Z,74.05
2023-01-07T20:51:28.449Z,69.18
2023-01-07T20:53:56.877Z,67.78
2023-01-07T20:56:26.286Z,65.27
2023-01-07T20:58:54.012Z,64.65
2023-01-07T21:01:22.128Z,66.90
2023-01-07T21:03:50.546Z,64.95
2023-01-07T21:06:20.449Z,64.77
2023-01-07T21:11:22.071Z,59.40
2023-01-07T21:13:52.691Z,57.35
2023-01-07T21:16:20.618Z,57.35
2023-01-07T21:18:48.660Z,54.70
2023-01-07T21:21:22.225Z,54.35
2023-01-07T21:23:50.096Z,53.78
2023-01-07T21:26:20.136Z,54.17
2023-01-07T21:28:47.776Z,52.20
2023-01-07T21:31:17.143Z,54.97
2023-01-07T21:33:45.186Z,53.38
2023-01-07T21:36:19.265Z,54.38
2023-01-07T21:38:54.094Z,52.47
2023-01-07T21:41:23.806Z,55.00
2023-01-07T21:43:51.415Z,54.78
2023-01-07T21:46:20.654Z,55.22
2023-01-07T21:48:48.361Z,54.38
2023-01-07T21:51:27.471Z,52.67
2023-01-07T21:53:57.492Z,49.88
2023-01-07T21:56:32.907Z,48.58
2023-01-07T21:59:00.879Z,48.22
2023-01-07T22:01:29.535Z,50.33
2023-01-07T22:03:59.157Z,50.70
2023-01-07T22:06:38.880Z,49.60
2023-01-07T22:09:14.023Z,48.83
2023-01-07T22:11:43.163Z,48.90
2023-01-07T22:14:18.133Z,44.35
2023-01-07T22:16:48.910Z,41.88
2023-01-07T22:19:16.950Z,38.13
2023-01-07T22:21:44.870Z,34.35
2023-01-07T22:24:13.770Z,32.63
2023-01-07T22:26:41.561Z,35.38
2023-01-07T22:29:09.493Z,36.25
2023-01-07T22:31:38.144Z,36.05
2023-01-07T22:34:07.597Z,39.08
2023-01-07T22:36:54.322Z,45.90
2023-01-07T22:39:45.816Z,38.28
2023-01-07T22:42:30.009Z,38.30
2023-01-07T22:45:13.251Z,36.17
2023-01-07T22:47:47.891Z,44.60
2023-01-07T22:50:17.304Z,52.45
2023-01-07T22:52:46.125Z,39.17
2023-01-07T22:55:13.912Z,36.20
2023-01-07T22:57:42.099Z,38.28
2023-01-07T23:00:36.894Z,38.30
2023-01-07T23:03:04.926Z,37.15
2023-01-07T23:05:32.900Z,39.85
2023-01-07T23:08:00.849Z,38.30
2023-01-07T23:10:28.384Z,39.40
2023-01-07T23:12:56.343Z,37.42
2023-01-07T23:15:24.381Z,37.80
2023-01-07T23:17:52.291Z,34.30
2023-01-07T23:20:19.818Z,34.40
2023-01-07T23:22:47.830Z,36.63
2023-01-07T23:25:15.573Z,40.70
2023-01-07T23:27:43.420Z,44.20
2023-01-07T23:30:12.169Z,44.08
2023-01-07T23:32:40.083Z,41.20
2023-01-07T23:35:08.162Z,40.33
2023-01-07T23:37:35.979Z,41.15
2023-01-07T23:40:04.903Z,39.83
2023-01-07T23:42:32.856Z,39.38
2023-01-07T23:45:00.437Z,40.22
2023-01-07T23:47:28.272Z,40.10
2023-01-07T23:49:55.801Z,38.88
2023-01-07T23:52:23.729Z,39.67
2023-01-07T23:54:51.204Z,39.90
2023-01-07T23:57:19.042Z,37.38
2023-01-07T23:59:46.515Z,37.95
